Time;durP1;ratioP1;P1;durP2;ratioP2;P2;SDS_P1;SDS_P2;PMS_P1;PMS_P2;Temp;Humidity;BMP_temperature;BMP_pressure;BME280_temperature;BME280_humidity;BME280_pressure;Samples;Min_cycle;Max_cycle;Signal;HPM_P1;HPM_P2
2022/01/03 00:00:16;;;;;;;;;213.25;197.25;11.00;68.90;;;;;;4956104;28;8814;-65
2022/01/03 00:02:43;;;;;;;;;168.50;154.00;10.80;69.80;;;;;;4956312;28;8780;-65
2022/01/03 00:05:10;;;;;;;;;202.25;181.75;10.80;69.20;;;;;;4957295;28;8787;-65
2022/01/03 00:07:43;;;;;;;;;191.50;171.25;10.80;69.70;;;;;;4956906;28;8824;-66
2022/01/03 00:10:10;;;;;;;;;195.25;171.50;10.70;69.80;;;;;;4956123;28;8797;-65
2022/01/03 00:12:38;;;;;;;;;154.50;139.75;11.00;68.40;;;;;;4956883;28;8812;-65
2022/01/03 00:15:07;;;;;;;;;131.25;118.75;11.10;67.20;;;;;;4956995;28;8817;-65
2022/01/03 00:17:33;;;;;;;;;115.75;113.25;11.10;68.10;;;;;;4956771;28;8777;-66
2022/01/03 00:19:59;;;;;;;;;129.00;119.50;10.90;69.70;;;;;;4956314;28;9434;-66
2022/01/03 00:22:26;;;;;;;;;167.50;152.00;10.90;68.90;;;;;;4957670;28;8794;-65
2022/01/03 00:25:18;;;;;;;;;156.00;143.50;11.00;67.90;;;;;;4957810;28;8769;-64
2022/01/03 00:28:21;;;;;;;;;166.00;153.25;11.20;67.60;;;;;;4950364;28;8853;-65
2022/01/03 00:30:54;;;;;;;;;186.50;167.50;11.20;67.10;;;;;;4954868;28;8804;-65
2022/01/03 00:33:21;;;;;;;;;174.50;158.25;11.10;67.30;;;;;;4957299;28;8861;-64
2022/01/03 00:35:55;;;;;;;;;132.75;125.50;11.10;67.70;;;;;;4957563;28;9430;-64
2022/01/03 00:38:22;;;;;;;;;126.50;112.25;11.10;67.00;;;;;;4957677;28;8757;-65
2022/01/03 00:40:49;;;;;;;;;130.00;117.25;11.30;66.30;;;;;;4957511;28;8756;-65
2022/01/03 00:43:18;;;;;;;;;134.75;127.25;11.10;66.90;;;;;;4972588;28;9435;-64
2022/01/03 00:45:44;;;;;;;;;131.00;121.50;11.00;66.90;;;;;;4957479;28;8891;-65
2022/01/03 00:48:13;;;;;;;;;149.25;138.00;11.10;66.70;;;;;;4957274;28;8808;-65
2022/01/03 00:50:39;;;;;;;;;142.50;128.50;11.10;66.30;;;;;;4957521;28;9439;-65
2022/01/03 00:53:05;;;;;;;;;180.50;167.25;10.80;67.00;;;;;;4957240;28;8796;-64
2022/01/03 00:55:32;;;;;;;;;209.75;190.50;10.30;70.00;;;;;;4957242;28;8764;-64
2022/01/03 00:57:59;;;;;;;;;212.00;195.00;9.50;75.60;;;;;;4957428;28;8807;-65
2022/01/03 01:00:26;;;;;;;;;216.25;199.00;9.10;80.30;;;;;;4957196;28;8827;-65
2022/01/03 01:03:19;;;;;;;;;194.00;183.25;9.20;79.30;;;;;;4956727;28;8756;-64
2022/01/03 01:05:51;;;;;;;;;168.00;155.00;9.80;74.70;;;;;;4957048;28;8808;-64
2022/01/03 01:08:21;;;;;;;;;137.75;127.00;10.30;71.50;;;;;;4956949;28;8823;-65
2022/01/03 01:10:51;;;;;;;;;134.75;125.50;10.60;69.40;;;;;;4957229;28;9442;-65
2022/01/03 01:13:18;;;;;;;;;116.50;115.50;10.70;68.70;;;;;;4956892;28;8745;-65
2022/01/03 01:15:43;;;;;;;;;123.25;116.25;10.90;67.90;;;;;;4957133;28;8819;-65
2022/01/03 01:18:10;;;;;;;;;125.00;118.25;10.60;68.20;;;;;;4956676;28;9434;-65
2022/01/03 01:20:39;;;;;;;;;120.00;114.75;10.70;67.60;;;;;;4956723;28;8839;-64
2022/01/03 01:23:06;;;;;;;;;99.25;95.25;10.80;67.30;;;;;;4956770;28;8780;-65
2022/01/03 01:28:06;;;;;;;;;87.75;81.25;10.60;68.80;;;;;;4956860;28;8962;-65
2022/01/03 01:30:33;;;;;;;;;97.25;88.75;10.80;68.10;;;;;;4956767;28;8843;-64
2022/01/03 01:33:09;;;;;;;;;128.25;114.25;11.20;65.80;;;;;;4956613;28;8783;-65
2022/01/03 01:35:48;;;;;;;;;145.75;131.25;10.80;67.10;;;;;;4956593;28;8878;-64
2022/01/03 01:38:16;;;;;;;;;112.75;104.50;10.90;66.80;;;;;;4956879;28;8951;-65
2022/01/03 01:40:50;;;;;;;;;84.50;76.75;10.80;67.40;;;;;;4956430;28;8863;-67
2022/01/03 01:43:28;;;;;;;;;79.50;66.25;10.80;66.90;;;;;;4956799;28;8776;-65
2022/01/03 01:45:56;;;;;;;;;75.25;61.25;10.90;65.90;;;;;;4956477;28;8918;-65
2022/01/03 01:48:24;;;;;;;;;76.25;59.25;10.90;66.00;;;;;;4956315;28;8800;-65
2022/01/03 01:50:51;;;;;;;;;77.00;60.00;10.70;67.00;;;;;;4956384;28;8765;-64
2022/01/03 01:53:23;;;;;;;;;88.25;81.50;11.00;66.00;;;;;;4956621;28;8764;-64
2022/01/03 01:55:52;;;;;;;;;88.00;83.50;11.20;65.00;;;;;;4956451;28;8795;-65
2022/01/03 01:58:17;;;;;;;;;102.00;96.25;11.10;64.80;;;;;;4956508;28;8910;-65
2022/01/03 02:00:48;;;;;;;;;111.50;102.50;10.90;65.20;;;;;;4956260;28;9406;-65
2022/01/03 02:03:18;;;;;;;;;118.50;109.75;10.70;65.90;;;;;;4956497;29;9442;-65
2022/01/03 02:05:57;;;;;;;;;131.50;122.00;10.60;66.90;;;;;;4956306;29;8764;-64
2022/01/03 02:08:28;;;;;;;;;127.25;114.50;10.40;68.10;;;;;;4956419;29;8930;-65
2022/01/03 02:11:33;;;;;;;;;131.75;129.75;10.80;66.50;;;;;;4956289;29;8745;-65
2022/01/03 02:13:59;;;;;;;;;137.25;132.25;10.60;67.00;;;;;;4942545;29;9154;-66
2022/01/03 02:16:25;;;;;;;;;164.75;155.75;10.10;69.60;;;;;;4958576;28;8788;-66
2022/01/03 02:18:51;;;;;;;;;159.75;145.25;9.90;70.50;;;;;;4959266;28;8804;-66
2022/01/03 02:21:19;;;;;;;;;139.00;137.00;9.90;70.20;;;;;;4958961;28;8819;-66
2022/01/03 02:23:45;;;;;;;;;141.75;134.25;10.30;67.90;;;;;;4958692;28;8799;-65
2022/01/03 02:26:12;;;;;;;;;187.75;170.25;10.40;67.00;;;;;;4958568;28;8894;-66
2022/01/03 02:28:38;;;;;;;;;199.25;178.25;10.00;68.40;;;;;;4958745;28;8824;-65
2022/01/03 02:31:03;;;;;;;;;195.25;175.75;9.70;70.70;;;;;;4958880;28;8769;-66
2022/01/03 02:33:29;;;;;;;;;218.25;194.50;10.10;68.70;;;;;;4973581;28;8843;-65
2022/01/03 02:35:55;;;;;;;;;226.75;205.25;10.00;68.90;;;;;;4958488;28;8801;-66
2022/01/03 02:38:21;;;;;;;;;211.50;193.25;10.20;68.20;;;;;;4958493;28;8760;-65
2022/01/03 02:40:48;;;;;;;;;222.75;201.00;10.10;68.10;;;;;;4958423;28;8784;-65
2022/01/03 02:43:14;;;;;;;;;250.50;227.25;9.70;69.60;;;;;;4958384;28;8777;-66
2022/01/03 02:45:40;;;;;;;;;232.00;210.75;9.60;70.30;;;;;;4958423;28;8783;-65
2022/01/03 02:48:07;;;;;;;;;225.75;206.00;9.30;72.60;;;;;;4958200;28;8820;-65
2022/01/03 02:50:35;;;;;;;;;211.25;191.00;9.60;71.10;;;;;;4958537;28;8773;-65
2022/01/03 02:53:01;;;;;;;;;222.25;199.75;9.70;70.70;;;;;;4958560;28;8783;-65
2022/01/03 02:55:27;;;;;;;;;228.00;207.50;9.90;69.90;;;;;;4958509;28;8761;-65
2022/01/03 02:57:58;;;;;;;;;234.75;208.00;9.60;70.60;;;;;;4958173;28;8928;-66
2022/01/03 03:00:27;;;;;;;;;241.25;221.75;9.40;72.50;;;;;;4958188;28;8791;-65
2022/01/03 03:02:53;;;;;;;;;229.75;208.25;9.50;71.60;;;;;;4958360;28;8797;-66
2022/01/03 03:05:18;;;;;;;;;233.00;218.00;9.60;71.50;;;;;;4958036;28;8793;-66
2022/01/03 03:07:47;;;;;;;;;234.75;214.75;9.70;71.20;;;;;;4958165;28;8832;-65
2022/01/03 03:10:18;;;;;;;;;247.50;228.75;9.50;71.70;;;;;;4958208;28;8851;-66
2022/01/03 03:12:44;;;;;;;;;256.00;226.25;9.10;74.20;;;;;;4957949;28;8764;-66
2022/01/03 03:15:12;;;;;;;;;237.75;216.00;9.20;74.40;;;;;;4957867;28;8780;-66
2022/01/03 03:17:41;;;;;;;;;252.00;224.00;9.60;71.40;;;;;;4915158;28;1240706;-65
2022/01/03 03:20:08;;;;;;;;;236.00;213.00;9.60;71.10;;;;;;4958976;28;8796;-66
2022/01/03 03:22:36;;;;;;;;;216.75;200.50;9.80;69.70;;;;;;4959120;28;8772;-66
2022/01/03 03:25:09;;;;;;;;;231.50;216.00;10.10;67.90;;;;;;4959147;28;8764;-66
2022/01/03 03:27:42;;;;;;;;;214.75;199.25;9.90;67.90;;;;;;4958569;28;8859;-65
2022/01/03 03:30:14;;;;;;;;;198.00;184.00;10.20;67.10;;;;;;4959067;28;9544;-66
2022/01/03 03:32:40;;;;;;;;;203.25;189.50;10.40;66.20;;;;;;4959027;28;8877;-65
2022/01/03 03:35:06;;;;;;;;;200.50;184.75;10.50;65.80;;;;;;4958761;28;8788;-65
2022/01/03 03:37:32;;;;;;;;;202.50;181.75;10.40;65.80;;;;;;4958627;28;8786;-66
2022/01/03 03:39:58;;;;;;;;;167.25;159.50;10.40;66.70;;;;;;4958609;28;8883;-65
2022/01/03 03:42:23;;;;;;;;;160.00;150.25;10.40;65.60;;;;;;4958872;28;8793;-66
2022/01/03 03:44:49;;;;;;;;;125.50;115.25;10.20;66.30;;;;;;4958535;28;8790;-66
2022/01/03 03:47:15;;;;;;;;;133.00;121.00;10.20;66.50;;;;;;4958451;28;8847;-66
2022/01/03 03:49:41;;;;;;;;;151.00;139.25;10.20;66.80;;;;;;4958666;28;8773;-66
2022/01/03 03:52:08;;;;;;;;;162.25;145.00;9.90;68.10;;;;;;4958609;28;8784;-66
2022/01/03 03:54:34;;;;;;;;;137.25;127.75;10.00;67.70;;;;;;4958361;28;8776;-65
2022/01/03 03:57:02;;;;;;;;;134.50;125.75;10.20;67.00;;;;;;4958197;28;8764;-65
2022/01/03 03:59:28;;;;;;;;;134.00;124.50;10.20;66.60;;;;;;4958333;28;8857;-66
2022/01/03 04:01:55;;;;;;;;;127.75;118.50;9.90;67.80;;;;;;4958250;28;8900;-66
2022/01/03 04:04:21;;;;;;;;;123.25;111.25;10.00;66.70;;;;;;4958437;28;8768;-65
2022/01/03 04:06:48;;;;;;;;;129.25;120.75;10.10;65.80;;;;;;4958047;28;8753;-65
2022/01/03 04:09:14;;;;;;;;;98.50;92.25;10.00;66.00;;;;;;4957920;28;8808;-66
2022/01/03 04:11:40;;;;;;;;;107.75;98.75;10.10;65.70;;;;;;4958012;28;8862;-65
2022/01/03 04:14:06;;;;;;;;;100.50;91.25;10.00;65.10;;;;;;4958260;28;8772;-66
2022/01/03 04:16:34;;;;;;;;;97.00;87.75;9.90;66.30;;;;;;4958046;28;8772;-65
2022/01/03 04:19:00;;;;;;;;;113.00;104.00;9.60;66.80;;;;;;4957721;28;8812;-66
2022/01/03 04:21:26;;;;;;;;;102.00;92.75;9.60;67.30;;;;;;4957938;28;8796;-66
2022/01/03 04:23:52;;;;;;;;;113.00;102.50;9.90;66.00;;;;;;4957763;28;8882;-66
2022/01/03 04:26:18;;;;;;;;;108.75;103.25;9.90;65.90;;;;;;4957819;28;8784;-66
2022/01/03 04:28:44;;;;;;;;;115.25;105.75;9.40;67.60;;;;;;4957966;28;8828;-65
2022/01/03 04:31:10;;;;;;;;;110.25;102.00;9.50;67.20;;;;;;4957983;28;9569;-66
2022/01/03 04:33:36;;;;;;;;;121.50;113.25;9.40;67.80;;;;;;4957617;28;8883;-66
2022/01/03 04:36:04;;;;;;;;;117.75;104.50;9.50;67.50;;;;;;4957378;28;8765;-66
2022/01/03 04:38:32;;;;;;;;;119.25;110.25;9.70;66.60;;;;;;4956299;28;8890;-66
2022/01/03 04:41:01;;;;;;;;;113.00;104.75;9.70;66.70;;;;;;4957504;28;8772;-66
2022/01/03 04:43:27;;;;;;;;;113.50;107.75;9.70;66.70;;;;;;4957392;28;8799;-66
2022/01/03 04:45:55;;;;;;;;;111.50;102.25;10.00;65.80;;;;;;4957362;28;8776;-66
2022/01/03 04:48:21;;;;;;;;;114.75;104.50;9.90;65.70;;;;;;4957287;28;8800;-66
2022/01/03 04:50:47;;;;;;;;;109.25;102.50;9.90;66.20;;;;;;4957391;28;8867;-66
2022/01/03 04:53:12;;;;;;;;;94.75;87.00;10.00;65.90;;;;;;4957501;28;8915;-66
2022/01/03 04:55:38;;;;;;;;;105.25;96.00;10.10;66.50;;;;;;4957523;28;8756;-66
2022/01/03 04:58:04;;;;;;;;;99.00;87.25;9.90;67.40;;;;;;4957156;28;8835;-65
2022/01/03 05:00:30;;;;;;;;;89.50;81.50;9.90;68.00;;;;;;4957318;28;8862;-65
2022/01/03 05:02:56;;;;;;;;;95.00;82.25;10.10;67.10;;;;;;4957090;28;8792;-65
2022/01/03 05:05:22;;;;;;;;;98.00;89.50;9.90;68.90;;;;;;4940238;28;8787;-65
2022/01/03 05:07:48;;;;;;;;;87.75;70.25;9.80;69.40;;;;;;4957237;28;8839;-64
2022/01/03 05:10:14;;;;;;;;;101.50;98.75;10.10;67.60;;;;;;4957018;28;9426;-65
2022/01/03 05:12:40;;;;;;;;;110.00;102.25;10.10;67.40;;;;;;4957196;28;8761;-65
2022/01/03 05:15:06;;;;;;;;;116.50;108.50;9.90;68.60;;;;;;4957137;28;8815;-65
2022/01/03 05:17:32;;;;;;;;;107.25;97.25;10.00;67.90;;;;;;4956694;28;8769;-65
2022/01/03 05:19:58;;;;;;;;;121.00;108.00;10.10;68.00;;;;;;4957055;28;8798;-65
2022/01/03 05:22:24;;;;;;;;;126.50;119.75;9.80;69.00;;;;;;4957058;28;9468;-65
2022/01/03 05:24:50;;;;;;;;;116.25;109.00;9.40;70.70;;;;;;4956705;28;8784;-65
2022/01/03 05:27:16;;;;;;;;;114.50;101.75;9.20;72.50;;;;;;4956618;28;9292;-65
2022/01/03 05:29:42;;;;;;;;;126.50;114.50;9.20;72.70;;;;;;4956951;28;8772;-65
2022/01/03 05:32:08;;;;;;;;;157.50;143.75;9.40;71.90;;;;;;4956505;28;8784;-65
2022/01/03 05:34:34;;;;;;;;;118.25;113.75;9.60;70.60;;;;;;4956813;28;8761;-66
2022/01/03 05:37:00;;;;;;;;;117.75;110.25;9.60;70.60;;;;;;4956531;28;8815;-65
2022/01/03 05:39:26;;;;;;;;;120.00;111.25;9.80;69.60;;;;;;4956180;28;8808;-65
2022/01/03 05:41:52;;;;;;;;;118.00;110.50;9.80;68.40;;;;;;4956712;28;8887;-66
2022/01/03 05:44:17;;;;;;;;;131.75;124.00;9.60;69.30;;;;;;4956764;28;8909;-66
2022/01/03 05:46:43;;;;;;;;;133.25;118.00;9.60;69.70;;;;;;4956369;28;8783;-65
2022/01/03 05:49:11;;;;;;;;;121.25;113.75;9.80;67.90;;;;;;4956174;28;8906;-66
2022/01/03 05:51:37;;;;;;;;;161.25;149.75;9.60;68.70;;;;;;4956587;28;9454;-65
2022/01/03 05:54:04;;;;;;;;;156.75;143.50;8.90;73.20;;;;;;4956369;28;8769;-65
2022/01/03 05:56:30;;;;;;;;;173.00;163.50;8.80;74.30;;;;;;4956279;28;8792;-65
2022/01/03 05:58:56;;;;;;;;;166.75;155.00;9.10;73.90;;;;;;4956606;28;8820;-65
2022/01/03 06:01:23;;;;;;;;;181.00;165.75;9.10;73.10;;;;;;4956365;28;8772;-66
2022/01/03 06:03:58;;;;;;;;;180.00;163.50;8.70;74.90;;;;;;4956091;28;8886;-65
2022/01/03 06:09:26;;;;;;;;;195.25;178.00;8.70;75.60;;;;;;4915840;29;9040;-65
2022/01/03 06:11:53;;;;;;;;;191.50;176.25;8.40;77.70;;;;;;4915789;29;8936;-64
2022/01/03 06:14:20;;;;;;;;;207.25;187.50;8.20;79.40;;;;;;4915840;29;8781;-65
2022/01/03 06:16:48;;;;;;;;;210.50;188.00;8.10;80.70;;;;;;4915952;29;8781;-65
2022/01/03 06:19:14;;;;;;;;;183.25;169.50;8.30;79.90;;;;;;4915714;29;9555;-65
2022/01/03 06:21:41;;;;;;;;;156.25;153.00;8.70;77.40;;;;;;4915964;29;8808;-65
2022/01/03 06:24:10;;;;;;;;;175.75;163.25;9.00;75.70;;;;;;4915739;29;8792;-65
2022/01/03 06:26:37;;;;;;;;;190.75;176.75;9.00;75.70;;;;;;4915788;29;8803;-65
2022/01/03 06:29:04;;;;;;;;;206.25;196.00;9.10;74.50;;;;;;4913834;29;8931;-66
2022/01/03 06:31:32;;;;;;;;;233.50;212.50;8.80;75.80;;;;;;4915554;29;8797;-67
2022/01/03 06:33:58;;;;;;;;;223.25;199.50;9.00;75.10;;;;;;4915667;29;8777;-66
2022/01/03 06:36:24;;;;;;;;;186.75;176.00;9.00;75.10;;;;;;4915626;29;8794;-66
2022/01/03 06:38:50;;;;;;;;;173.00;163.25;8.80;76.60;;;;;;4915605;29;8801;-66
2022/01/03 06:41:16;;;;;;;;;75.25;58.25;8.90;76.10;;;;;;4915592;29;8773;-66
2022/01/03 06:43:41;;;;;;;;;175.75;159.25;8.80;76.50;;;;;;4915534;29;8826;-66
2022/01/03 06:46:07;;;;;;;;;161.25;150.25;8.70;77.30;;;;;;4954688;28;8780;-65
2022/01/03 06:48:33;;;;;;;;;153.50;137.00;8.70;76.70;;;;;;4955729;29;8920;-67
2022/01/03 06:50:59;;;;;;;;;127.00;115.50;9.20;74.20;;;;;;4955928;28;8768;-65
2022/01/03 06:53:25;;;;;;;;;139.75;126.50;9.50;72.20;;;;;;4955780;29;8792;-66
2022/01/03 06:55:50;;;;;;;;;169.00;155.00;9.80;70.40;;;;;;4955721;29;8777;-65
2022/01/03 06:58:16;;;;;;;;;191.75;177.75;9.60;70.80;;;;;;4956044;29;8800;-66
2022/01/03 07:00:42;;;;;;;;;196.50;177.00;9.20;72.10;;;;;;4955518;28;8781;-65
2022/01/03 07:03:08;;;;;;;;;172.00;162.00;9.10;73.30;;;;;;4958802;28;8846;-66
2022/01/03 07:05:33;;;;;;;;;166.25;157.25;9.20;73.10;;;;;;4958913;28;8765;-65
2022/01/03 07:07:59;;;;;;;;;169.75;152.50;8.90;74.60;;;;;;4958989;28;8828;-67
2022/01/03 07:10:26;;;;;;;;;161.00;145.75;9.10;73.60;;;;;;4959121;28;8907;-66
2022/01/03 07:12:53;;;;;;;;;132.25;124.25;9.40;71.90;;;;;;4959227;28;8748;-67
2022/01/03 07:20:51;;;;;;;;;141.50;129.75;9.60;70.10;;;;;;4959332;28;8744;-67
2022/01/03 07:23:18;;;;;;;;;126.75;121.00;9.30;71.40;;;;;;4958925;28;8787;-66
2022/01/03 07:25:46;;;;;;;;;124.50;115.25;9.30;70.80;;;;;;4958912;28;8792;-66
2022/01/03 07:28:13;;;;;;;;;120.50;112.50;9.60;69.90;;;;;;4958999;28;8866;-66
2022/01/03 07:30:39;;;;;;;;;123.75;112.00;10.00;67.70;;;;;;4958730;28;8788;-67
2022/01/03 07:33:05;;;;;;;;;109.00;107.00;10.00;67.30;;;;;;4958945;28;8811;-66
2022/01/03 07:35:31;;;;;;;;;152.00;141.25;10.30;66.30;;;;;;4958781;28;8795;-67
2022/01/03 07:37:58;;;;;;;;;194.50;177.50;10.40;65.70;;;;;;4958881;28;8788;-67
2022/01/03 07:40:25;;;;;;;;;227.00;211.50;10.20;65.80;;;;;;4958969;28;8764;-66
2022/01/03 07:42:51;;;;;;;;;196.00;183.75;10.50;65.00;;;;;;4958577;28;8781;-66
2022/01/03 07:45:17;;;;;;;;;218.75;203.50;10.40;65.10;;;;;;4958576;28;8760;-66
2022/01/03 07:47:43;;;;;;;;;217.00;201.75;10.10;66.40;;;;;;4958571;28;8840;-66
2022/01/03 07:50:10;;;;;;;;;218.25;200.00;10.20;66.80;;;;;;4958351;28;8799;-67
2022/01/03 07:52:36;;;;;;;;;230.75;212.50;10.00;67.20;;;;;;4958261;28;8858;-65
2022/01/03 07:55:04;;;;;;;;;316.25;285.75;9.50;70.10;;;;;;4958371;28;8764;-67
2022/01/03 07:57:30;;;;;;;;;330.00;301.75;9.20;72.90;;;;;;4958226;28;8804;-65
2022/01/03 07:59:55;;;;;;;;;350.00;320.75;9.10;72.90;;;;;;4956884;28;8776;-66
2022/01/03 08:02:21;;;;;;;;;348.75;316.75;9.40;72.20;;;;;;4957340;28;8776;-65
2022/01/03 08:04:47;;;;;;;;;315.25;285.50;9.60;70.50;;;;;;4958079;28;8882;-67
2022/01/03 08:07:13;;;;;;;;;332.00;302.25;9.50;70.10;;;;;;4958206;28;8783;-68
2022/01/03 08:09:38;;;;;;;;;313.75;288.25;9.60;70.90;;;;;;4958125;28;8769;-68
2022/01/03 08:12:05;;;;;;;;;306.00;278.25;10.20;68.10;;;;;;4957811;28;8793;-67
2022/01/03 08:14:32;;;;;;;;;226.50;213.75;10.40;66.20;;;;;;4957175;28;8783;-66
2022/01/03 08:16:58;;;;;;;;;290.25;264.50;10.40;65.90;;;;;;4956335;28;8785;-68
2022/01/03 08:19:24;;;;;;;;;246.75;228.50;10.50;66.30;;;;;;4957272;28;8837;-67
2022/01/03 08:21:50;;;;;;;;;226.50;210.00;10.10;68.40;;;;;;4940332;28;8827;-67
2022/01/03 08:24:17;;;;;;;;;255.25;228.25;10.00;69.00;;;;;;4957726;28;8807;-66
2022/01/03 08:26:43;;;;;;;;;227.00;210.00;9.90;68.60;;;;;;4957972;28;8872;-67
2022/01/03 08:29:09;;;;;;;;;221.50;191.50;10.10;67.80;;;;;;4957900;28;9609;-67
2022/01/03 08:31:37;;;;;;;;;212.00;194.00;10.00;68.00;;;;;;4957125;28;8942;-67
2022/01/03 08:34:05;;;;;;;;;241.00;218.25;10.20;67.90;;;;;;4957503;28;8780;-66
2022/01/03 08:36:32;;;;;;;;;244.00;221.50;10.30;67.10;;;;;;4957004;28;8859;-68
2022/01/03 08:38:58;;;;;;;;;250.00;225.00;10.30;66.90;;;;;;4956402;28;8800;-67
2022/01/03 08:41:24;;;;;;;;;222.50;200.00;10.60;65.70;;;;;;4957237;28;8788;-68
2022/01/03 08:43:51;;;;;;;;;258.00;236.75;11.10;64.10;;;;;;4955845;28;8776;-65
2022/01/03 08:46:17;;;;;;;;;365.25;332.50;11.60;62.70;;;;;;4955373;28;8816;-67
2022/01/03 08:48:43;;;;;;;;;409.25;381.50;11.80;62.90;;;;;;4954693;28;8898;-67
2022/01/03 08:51:09;;;;;;;;;452.50;411.75;12.00;62.50;;;;;;4957197;28;8796;-67
2022/01/03 08:53:35;;;;;;;;;452.80;415.00;11.90;63.10;;;;;;4956160;28;8788;-65
2022/01/03 08:56:01;;;;;;;;;422.80;392.00;12.10;62.90;;;;;;4955729;28;8788;-67
2022/01/03 08:58:27;;;;;;;;;412.80;378.80;11.90;63.70;;;;;;4946884;28;8828;-65
2022/01/03 09:00:53;;;;;;;;;385.00;356.60;12.20;62.30;;;;;;4955659;28;8783;-67
2022/01/03 09:03:19;;;;;;;;;385.00;345.40;12.40;62.30;;;;;;4954888;28;8821;-66
2022/01/03 09:05:46;;;;;;;;;358.25;322.00;12.70;61.90;;;;;;4955835;28;8786;-68
2022/01/03 09:08:13;;;;;;;;;332.25;307.25;12.90;60.50;;;;;;4955423;28;8809;-66
2022/01/03 09:10:39;;;;;;;;;330.50;302.00;13.10;59.80;;;;;;4953435;28;8768;-68
2022/01/03 09:13:05;;;;;;;;;337.75;310.75;13.30;58.60;;;;;;4955365;28;8778;-68
2022/01/03 09:15:31;;;;;;;;;320.25;293.75;13.30;58.40;;;;;;4953753;28;8783;-68
2022/01/03 09:17:57;;;;;;;;;309.50;289.25;13.30;58.20;;;;;;4953748;28;8855;-65
2022/01/03 09:20:23;;;;;;;;;317.75;290.00;13.40;58.30;;;;;;4954183;28;8749;-66
2022/01/03 09:22:53;;;;;;;;;323.00;297.50;13.10;59.30;;;;;;4953636;28;8772;-67
2022/01/03 09:30:50;;;;;;;;;271.50;256.50;12.90;62.00;;;;;;4953799;28;8776;-67
2022/01/03 09:33:16;;;;;;;;;263.50;242.50;13.00;60.90;;;;;;4953377;28;8819;-66
2022/01/03 09:35:43;;;;;;;;;241.75;224.25;13.40;60.00;;;;;;4953904;28;8790;-66
2022/01/03 09:38:10;;;;;;;;;256.50;235.75;13.70;60.40;;;;;;4953902;28;9771;-65
2022/01/03 09:40:39;;;;;;;;;265.00;244.50;14.00;59.60;;;;;;4955154;28;8768;-65
2022/01/03 09:43:08;;;;;;;;;266.00;245.25;14.60;58.30;;;;;;4953456;28;8761;-66
2022/01/03 09:45:35;;;;;;;;;261.50;245.50;14.20;58.90;;;;;;4971383;28;8780;-66
2022/01/03 09:48:03;;;;;;;;;270.25;248.50;14.30;59.10;;;;;;4955563;28;8824;-66
2022/01/03 09:50:32;;;;;;;;;277.25;254.50;14.60;58.30;;;;;;4956471;28;8800;-65
2022/01/03 09:52:58;;;;;;;;;268.75;253.25;14.40;58.70;;;;;;4956401;28;8780;-62
2022/01/03 09:55:24;;;;;;;;;237.25;230.50;14.50;57.70;;;;;;4956258;28;8772;-60
2022/01/03 09:57:50;;;;;;;;;262.25;244.75;14.70;56.50;;;;;;4955604;28;8934;-59
2022/01/03 10:00:22;;;;;;;;;267.50;247.50;14.60;56.80;;;;;;4954485;28;9583;-62
2022/01/03 10:02:49;;;;;;;;;239.00;232.50;14.70;57.80;;;;;;4956163;28;8776;-61
2022/01/03 10:05:15;;;;;;;;;275.00;256.50;14.70;57.30;;;;;;4956422;28;9483;-62
2022/01/03 10:07:41;;;;;;;;;234.75;217.50;14.60;57.60;;;;;;4955959;29;8800;-62
2022/01/03 10:10:09;;;;;;;;;225.75;213.00;14.60;57.40;;;;;;4956092;29;8894;-67
2022/01/03 10:12:36;;;;;;;;;197.25;191.25;14.60;57.60;;;;;;4955828;28;8807;-68
2022/01/03 10:15:04;;;;;;;;;202.75;187.50;14.50;58.70;;;;;;4956137;29;8800;-71
2022/01/03 10:17:38;;;;;;;;;157.50;142.75;14.90;57.80;;;;;;4955799;29;8812;-68
2022/01/03 10:20:05;;;;;;;;;145.25;133.75;15.90;55.70;;;;;;4956093;29;8908;-68
2022/01/03 10:22:33;;;;;;;;;133.00;127.00;18.10;51.00;;;;;;4956072;29;9454;-67
2022/01/03 10:25:14;;;;;;;;;127.75;125.00;20.20;47.00;;;;;;4955837;28;8781;-69
2022/01/03 10:28:03;;;;;;;;;141.00;130.50;20.80;43.40;;;;;;4955995;29;8828;-67
2022/01/03 10:30:41;;;;;;;;;130.00;124.00;20.80;43.10;;;;;;4971107;28;8875;-68
2022/01/03 10:33:15;;;;;;;;;114.75;109.25;20.00;43.90;;;;;;4956281;29;8825;-68
2022/01/03 10:35:54;;;;;;;;;116.25;110.25;18.30;47.10;;;;;;4956233;28;8776;-65
2022/01/03 10:38:36;;;;;;;;;109.75;109.00;17.90;48.30;;;;;;4959717;28;8776;-66
2022/01/03 10:41:15;;;;;;;;;101.50;97.75;17.20;49.90;;;;;;4959593;28;8794;-66
2022/01/03 10:43:59;;;;;;;;;95.75;90.50;15.70;53.30;;;;;;4959876;28;8785;-66
2022/01/03 10:46:28;;;;;;;;;98.50;94.25;14.60;57.40;;;;;;4959595;28;9309;-67
2022/01/03 10:49:16;;;;;;;;;103.00;100.25;13.90;61.00;;;;;;4959893;28;8805;-67
2022/01/03 10:51:42;;;;;;;;;101.00;96.00;13.30;63.60;;;;;;4989626;28;8766;-67
2022/01/03 10:54:10;;;;;;;;;97.25;95.25;12.80;65.60;;;;;;4958415;28;8782;-67
2022/01/03 10:56:42;;;;;;;;;99.75;96.25;13.00;65.20;;;;;;4958285;28;8861;-67
2022/01/03 10:59:14;;;;;;;;;101.25;93.75;13.80;63.70;;;;;;4959686;28;8823;-67
2022/01/03 11:01:41;;;;;;;;;95.00;88.25;15.20;60.40;;;;;;4959547;28;8845;-67
2022/01/03 11:04:08;;;;;;;;;94.25;92.50;17.30;54.70;;;;;;4959178;28;8774;-67
2022/01/03 11:11:48;;;;;;;;;88.50;83.75;17.80;49.50;;;;;;4959118;28;8778;-69
2022/01/03 11:14:32;;;;;;;;;87.00;83.00;17.80;49.20;;;;;;4959196;28;8781;-69
2022/01/03 11:16:59;;;;;;;;;91.25;85.00;17.60;50.30;;;;;;4958986;28;8811;-69
2022/01/03 11:19:35;;;;;;;;;89.00;83.25;17.90;50.30;;;;;;4958768;28;8829;-68
2022/01/03 11:22:01;;;;;;;;;92.75;83.25;20.00;46.00;;;;;;4959134;28;8797;-68
2022/01/03 11:24:27;;;;;;;;;90.00;86.00;20.40;45.90;;;;;;4958743;28;8848;-68
2022/01/03 11:26:55;;;;;;;;;85.75;79.75;21.00;43.30;;;;;;4958730;28;8778;-68
2022/01/03 11:29:21;;;;;;;;;85.25;82.00;20.60;43.90;;;;;;4959029;28;8830;-68
2022/01/03 11:31:51;;;;;;;;;81.25;72.00;20.60;42.70;;;;;;4958745;28;8750;-68
2022/01/03 11:34:25;;;;;;;;;75.75;67.25;20.00;44.10;;;;;;4958705;28;8786;-68
2022/01/03 11:36:52;;;;;;;;;81.25;70.50;18.70;44.60;;;;;;4958835;28;9554;-65
2022/01/03 11:39:21;;;;;;;;;75.00;67.00;18.80;46.20;;;;;;4958829;28;8793;-66
2022/01/03 11:41:47;;;;;;;;;74.75;64.75;17.90;46.90;;;;;;4958557;28;8810;-66
2022/01/03 11:44:15;;;;;;;;;80.00;72.00;17.60;47.80;;;;;;4956072;28;8801;-65
2022/01/03 11:46:46;;;;;;;;;83.75;74.00;16.10;50.90;;;;;;4957452;28;8750;-65
2022/01/03 11:49:13;;;;;;;;;79.75;66.75;15.70;52.30;;;;;;4955191;28;8832;-65
2022/01/03 11:51:40;;;;;;;;;79.25;70.25;15.70;52.10;;;;;;4958033;28;8805;-64
2022/01/03 11:54:09;;;;;;;;;84.50;72.00;15.40;52.50;;;;;;4956755;28;8805;-64
2022/01/03 11:56:41;;;;;;;;;75.00;68.75;15.50;53.00;;;;;;4965592;28;8891;-64
2022/01/03 12:04:27;;;;;;;;;81.75;71.00;16.10;52.40;;;;;;4957890;28;8761;-64
2022/01/03 12:07:13;;;;;;;;;82.00;77.50;16.20;52.90;;;;;;4956676;28;8824;-63
2022/01/03 12:09:43;;;;;;;;;88.50;81.25;19.30;49.10;;;;;;4958349;28;8931;-64
2022/01/03 12:12:09;;;;;;;;;84.50;78.75;24.00;40.20;;;;;;4957872;28;8776;-64
2022/01/03 12:14:43;;;;;;;;;81.00;77.00;24.90;34.20;;;;;;4957679;28;8808;-64
2022/01/03 12:17:13;;;;;;;;;77.00;69.50;24.30;35.10;;;;;;4958105;28;8780;-64
2022/01/03 12:19:46;;;;;;;;;72.00;63.00;25.70;34.80;;;;;;4957424;28;8804;-67
2022/01/03 12:22:22;;;;;;;;;68.50;55.75;27.80;31.20;;;;;;4957003;28;8894;-67
2022/01/03 12:25:24;;;;;;;;;69.00;59.50;26.50;30.80;;;;;;4957088;28;8780;-64
2022/01/03 12:27:55;;;;;;;;;67.25;57.50;23.60;34.50;;;;;;4951836;28;8923;-63
2022/01/03 12:30:25;;;;;;;;;67.50;57.75;23.30;35.10;;;;;;4949478;28;8788;-63
2022/01/03 12:33:06;;;;;;;;;70.00;57.75;22.40;35.30;;;;;;4957087;28;8816;-63
2022/01/03 12:35:40;;;;;;;;;70.25;60.50;20.90;38.40;;;;;;4957371;28;9525;-63
2022/01/03 12:38:06;;;;;;;;;71.25;58.00;20.30;39.50;;;;;;4957915;28;8768;-63
2022/01/03 12:40:42;;;;;;;;;69.25;57.50;19.20;42.40;;;;;;4957223;28;9537;-63
2022/01/03 12:43:12;;;;;;;;;70.75;59.25;18.40;43.00;;;;;;4957600;28;8783;-63
2022/01/03 12:45:39;;;;;;;;;72.00;60.50;17.40;45.70;;;;;;4957764;28;8883;-63
2022/01/03 12:50:36;;;;;;;;;73.50;62.50;16.20;49.30;;;;;;4957420;28;8729;-62
2022/01/03 12:53:04;;;;;;;;;74.50;59.25;15.90;50.40;;;;;;4957186;28;9437;-62
2022/01/03 12:55:40;;;;;;;;;71.50;60.25;15.60;51.40;;;;;;4957149;28;8810;-63
2022/01/03 12:58:18;;;;;;;;;72.00;57.25;15.10;53.00;;;;;;4957111;28;8902;-63
2022/01/03 13:00:47;;;;;;;;;71.25;58.75;15.20;53.10;;;;;;4956420;28;8847;-63